AirNav   Advertisement
 
 1557 users online  

GA26 Fort Gordon Headquarters Helipad
Fort Gordon (Augusta), Georgia, USA

GOING TO FORT GORDON (AUGUSTA)?


FAA INFORMATION EFFECTIVE 20 JULY 2017

Location

FAA Identifier: GA26
Lat/Long: 33-25-13.4990N / 082-08-22.4300W
33-25.224983N / 082-08.373833W
33.4204164 / -82.1395639
(estimated)
Elevation: 458 ft. / 140 m (estimated)
Variation: 04W (1985)
From city: 7 miles SW of FORT GORDON(AUGUSTA), GA
Time zone: UTC -4 (UTC -5 during Standard Time)
Zip code: 30905

Heliport Operations

Heliport use: Private use. Permission required prior to landing
Control tower: no
ARTCC: ATLANTA CENTER
FSS: MACON FLIGHT SERVICE STATION
Attendance: UNATNDD
Wind indicator: yes
Segmented circle: no

Heliport Communications

WX ASOS at DNL (6 nm NE): 135.275 (706-481-8629)
WX ASOS at AGS (9 nm E): PHONE 706-790-0631
WX AWOS-3 at HQU (20 nm W): 120.625 (706-597-9801)

Nearby radio navigation aids

VOR radial/distance  VOR name  Freq  Var
IRQr180/17.3COLLIERS VORTAC113.9004W

 
NDB name  Hdg/Dist  Freq  Var  ID
EMORY254/7.638504WEMR . -- .-.
BUSHE314/12.523304WAG .- --.
AIKEN245/27.034706WAIK .- .. -.-
MILLEN350/32.720505WLNH .-.. -. ....
WASHINGTON/WILKES COUNTY125/39.843503WIIY .. .. -.--

Heliport Services

Runway Information

Helipad H1

Dimensions: 40 x 40 ft. / 12 x 12 m
Surface: concrete
Latitude: 33-25.224983N
Longitude: 082-08.373833W
Elevation: 458.0 ft.
Traffic pattern: leftleft

Heliport Ownership and Management from official FAA records

Ownership: U.S. Army
Owner: U S ARMY ATCA-ASO
CAMERON STN
ALEXANDRIA, VA 22314
Manager: TIM WEEGAR
1501 AVIATION WAY
AUGUSTA, GA 30906
Phone 404-798-8277

Heliport Operational Statistics

Aircraft based on the field: 1
Helicopters: 1
    

Additional Remarks

DO NOT OVERFLY HOSP OR POST HQ.
REFUEL BUSH FLD 9NM ESE.
PILOTS CTC RANGE CTL FOR BRIEFING PRIOR TO FLT IN R-3004. V780-5005/3342.

Instrument Procedures

There are no published instrument procedures at GA26.

Some nearby airports with instrument procedures:

KDNL - Daniel Field Airport (6 nm NE)
KAGS - Augusta Regional Airport at Bush Field (9 nm E)
KHQU - Thomson-McDuffie County Airport (20 nm W)
KBXG - Burke County Airport (24 nm S)
KAIK - Aiken Municipal Airport (27 nm NE)
 
Loc | Ops | Rwys | IFR | FBO | Links
Com | Nav | Svcs | Stats | Notes


 
Area around GA26 (Fort Gordon Headquarters Helipad)
 
Road maps at: MapQuest Bing Google
 
Aerial photo
No photo
 
Sectional chart

 
Airport distance calculator
Flying to Fort Gordon Headquarters Helipad? Find the distance to fly.

From to GA26

Sunrise and sunset
Times for 25-Jul-2017
 Local
(UTC-4)
 Zulu
(UTC)
Morning civil twilight06:1010:10
Sunrise06:3710:37
Sunset20:3300:33
Evening civil twilight21:0001:00

Current date and time
Zulu (UTC)  25-Jul-2017 18:12:37
Local (UTC-4)  25-Jul-2017 14:12:37
 
METAR
KDNL 
6nm NE 
251753Z AUTO 00000KT 10SM FEW044 33/21 A3007 RMK AO2 SLP177 T03280211 10333 20244 58006
KAGS 
9nm E 
251753Z 00000KT 10SM CLR 33/24 A3005 RMK AO2 SLP173 60000 T03330239 10344 20244 56007
KHQU 
20nm W 
251755Z AUTO 28003KT 10SM SCT036 SCT043 31/24 A3012 RMK AO2 T03110239 10322 20238
TAF
KDNL 
6nm NE 
251140Z 2512/2612 VRB03KT P6SM BKN120 FM251800 20006KT P6SM SCT050 BKN150 FM260000 VRB04KT P6SM BKN150 FM260800 VRB03KT 6SM BR SCT010 BKN150
KAGS 
9nm E 
251140Z 2512/2612 VRB03KT 3SM BR SCT120 FM251330 VRB03KT P6SM BKN150 FM251800 20006KT P6SM SCT050 BKN150 FM260000 VRB03KT P6SM BKN150 FM260800 00000KT 2SM BR SCT005 BKN150
NOTAMs
Click for the latest NOTAMs
NOTAMs are issued by the DoD/FAA and will open in a separate window not controlled by AirNav.

 

 
 

Would you like to see your business listed on this page?

 If your business provides an interesting product or service to pilots, flight crews, aircraft, or users of the Fort Gordon Headquarters Helipad, you should consider listing it here.  To start the listing process, click on the button below
 
Add a business
 

Other Pages about Fort Gordon Headquarters Helipad

Update a link
 
Copyright © AirNav, LLC. All rights reserved. Privacy Policy  Contact